Time;durP1;ratioP1;P1;durP2;ratioP2;P2;SDS_P1;SDS_P2;PMS_P1;PMS_P2;Temp;Humidity;BMP_temperature;BMP_pressure;BME280_temperature;BME280_humidity;BME280_pressure;Samples;Min_cycle;Max_cycle;Signal;HPM_P1;HPM_P2
2023/03/16 00:00:12;;;;;;;1.40;1.02;;;;;;;20.42;30.95;101860.03;5042261;28;20037;-66
2023/03/16 00:02:42;;;;;;;0.90;0.90;;;;;;;20.42;31.01;101862.66;5008334;28;20119;-65
2023/03/16 00:05:09;;;;;;;1.58;0.98;;;;;;;20.41;31.01;101861.84;5034573;28;20709;-65
2023/03/16 00:07:35;;;;;;;2.72;1.08;;;;;;;20.40;30.86;101860.16;5019327;28;20071;-65
2023/03/16 00:10:02;;;;;;;1.38;0.90;;;;;;;20.37;30.88;101849.91;5045144;28;20475;-65
2023/03/16 00:12:27;;;;;;;1.50;1.20;;;;;;;20.33;31.07;101855.66;5007244;28;20044;-65
2023/03/16 00:14:53;;;;;;;0.73;0.70;;;;;;;20.33;31.17;101856.50;5042152;28;20505;-66
2023/03/16 00:17:20;;;;;;;1.58;0.90;;;;;;;20.34;31.06;101859.97;5001594;28;20075;-66
2023/03/16 00:19:54;;;;;;;1.85;1.02;;;;;;;20.33;31.08;101855.66;5048129;28;20033;-66
2023/03/16 00:22:24;;;;;;;1.48;1.00;;;;;;;20.33;31.04;101858.31;5002093;28;20088;-66
2023/03/16 00:24:49;;;;;;;1.65;1.10;;;;;;;20.32;30.96;101856.66;5044536;28;20036;-66
2023/03/16 00:27:16;;;;;;;0.95;0.85;;;;;;;20.30;31.03;101853.34;5000119;28;20049;-66
2023/03/16 00:29:54;;;;;;;1.02;0.85;;;;;;;20.31;30.96;101847.06;5059603;28;20037;-66
2023/03/16 00:32:25;;;;;;;2.63;1.20;;;;;;;20.31;30.93;101842.59;4995331;28;20094;-66
2023/03/16 00:34:50;;;;;;;1.27;0.93;;;;;;;20.29;31.00;101838.44;5036262;28;20465;-66
2023/03/16 00:37:17;;;;;;;1.27;1.02;;;;;;;20.28;30.94;101837.59;5000280;28;20083;-66
2023/03/16 00:39:45;;;;;;;1.35;1.20;;;;;;;20.25;30.94;101835.28;5042381;28;21671;-66
2023/03/16 00:42:13;;;;;;;1.30;0.98;;;;;;;20.22;30.95;101839.06;4990426;28;20496;-66
2023/03/16 00:44:40;;;;;;;2.13;1.20;;;;;;;20.26;30.96;101834.28;5037939;28;20339;-66
2023/03/16 00:47:06;;;;;;;1.00;0.75;;;;;;;20.18;31.02;101829.81;5012229;28;20502;-66
2023/03/16 00:49:33;;;;;;;1.73;1.13;;;;;;;20.16;31.05;101825.66;5030446;28;20714;-67
2023/03/16 00:52:04;;;;;;;1.88;1.20;;;;;;;20.15;31.12;101824.84;5025616;28;20399;-66
2023/03/16 00:54:31;;;;;;;1.45;0.95;;;;;;;20.16;31.06;101828.31;5025695;28;20048;-66
2023/03/16 00:56:58;;;;;;;3.10;0.82;;;;;;;20.16;30.99;101826.50;5028511;28;20056;-66
2023/03/16 00:59:25;;;;;;;1.20;0.75;;;;;;;20.13;31.06;101818.06;5015490;28;20901;-66
2023/03/16 01:01:54;;;;;;;1.13;0.90;;;;;;;20.01;31.11;101809.56;5036766;28;20033;-66
2023/03/16 01:04:21;;;;;;;1.85;1.02;;;;;;;20.07;31.14;101810.72;5004041;28;20025;-66
2023/03/16 01:06:47;;;;;;;0.90;0.90;;;;;;;20.16;31.03;101817.72;5038970;28;20044;-66
2023/03/16 01:09:13;;;;;;;1.38;1.13;;;;;;;20.12;31.06;101819.88;5007138;28;20056;-66
2023/03/16 01:11:41;;;;;;;1.05;0.70;;;;;;;20.10;31.10;101805.13;5039577;28;20047;-67
2023/03/16 01:14:09;;;;;;;0.73;0.73;;;;;;;20.11;31.02;101809.44;5003452;28;20037;-65
2023/03/16 01:16:34;;;;;;;1.15;1.02;;;;;;;20.11;30.94;101801.53;5044739;28;20025;-66
2023/03/16 01:19:00;;;;;;;0.88;0.70;;;;;;;20.04;31.04;101795.19;5002610;28;20091;-67
2023/03/16 01:21:26;;;;;;;0.80;0.80;;;;;;;20.06;31.05;101809.91;5039121;28;20395;-66
2023/03/16 01:23:52;;;;;;;0.80;0.80;;;;;;;20.07;31.10;101798.34;5000229;28;20040;-67
2023/03/16 01:26:19;;;;;;;0.77;0.77;;;;;;;19.99;31.15;101774.50;5040870;28;20414;-66
2023/03/16 01:28:46;;;;;;;0.98;0.90;;;;;;;20.06;31.05;101764.13;4992247;28;20487;-66
2023/03/16 01:31:13;;;;;;;1.08;0.98;;;;;;;20.03;31.15;101759.97;5038676;28;20044;-67
2023/03/16 01:33:40;;;;;;;1.08;0.90;;;;;;;19.94;31.12;101739.81;4994295;28;20039;-66
2023/03/16 01:36:15;;;;;;;2.97;0.93;;;;;;;20.06;31.02;101767.59;5040773;28;20025;-66
2023/03/16 01:38:59;;;;;;;1.45;0.93;;;;;;;19.97;31.18;101755.34;4998600;28;20553;-66
2023/03/16 01:41:28;;;;;;;1.27;0.95;;;;;;;20.01;31.16;101756.66;5025443;28;20100;-66
2023/03/16 01:43:57;;;;;;;1.08;0.77;;;;;;;20.00;31.12;101756.84;4989359;28;20051;-67
2023/03/16 01:46:28;;;;;;;1.40;1.10;;;;;;;19.99;31.12;101755.19;5068826;28;20037;-66
2023/03/16 01:49:11;;;;;;;1.52;0.90;;;;;;;19.99;30.71;101760.47;5005147;28;20483;-66
2023/03/16 01:52:01;;;;;;;0.95;0.95;;;;;;;19.97;31.10;101762.44;5053219;28;20064;-66
2023/03/16 01:54:51;;;;;;;1.60;1.00;;;;;;;19.91;31.22;101750.66;4998476;28;20056;-66
2023/03/16 01:57:22;;;;;;;0.80;0.80;;;;;;;19.95;31.04;101752.03;5045021;28;20116;-66
2023/03/16 02:00:22;;;;;;;1.00;0.68;;;;;;;19.95;31.12;101748.56;5001093;28;20033;-66
2023/03/16 02:03:06;;;;;;;1.67;1.15;;;;;;;19.96;31.11;101742.28;5012877;28;20789;-65
2023/03/16 02:05:58;;;;;;;1.20;0.95;;;;;;;19.93;31.13;101740.78;5039385;28;20045;-66
2023/03/16 02:08:25;;;;;;;1.73;1.13;;;;;;;19.88;31.11;101733.31;4995003;28;20165;-66
2023/03/16 02:10:53;;;;;;;1.23;1.10;;;;;;;19.93;31.15;101730.22;5035642;28;20353;-65
2023/03/16 02:13:22;;;;;;;1.13;1.02;;;;;;;19.97;31.10;101730.72;4998551;28;20037;-65
2023/03/16 02:15:48;;;;;;;1.27;1.05;;;;;;;19.95;31.18;101733.53;5040413;28;20046;-66
2023/03/16 02:18:13;;;;;;;1.45;1.10;;;;;;;19.96;31.00;101708.75;4995146;28;20033;-66
2023/03/16 02:20:46;;;;;;;1.15;1.05;;;;;;;19.99;31.15;101712.88;5039979;28;20499;-64
2023/03/16 02:23:19;;;;;;;1.67;0.93;;;;;;;19.97;31.14;101709.56;5029061;28;20033;-66
2023/03/16 02:26:02;;;;;;;1.67;1.00;;;;;;;19.91;30.99;101711.00;5039089;28;20577;-66
2023/03/16 02:29:13;;;;;;;2.13;1.15;;;;;;;19.92;31.13;101710.84;4991165;28;20029;-66
2023/03/16 02:31:41;;;;;;;1.60;1.35;;;;;;;19.94;31.18;101704.59;4984690;28;20068;-65
2023/03/16 02:34:08;;;;;;;1.90;1.17;;;;;;;19.96;31.14;101707.91;4942367;28;20038;-66
2023/03/16 02:36:36;;;;;;;1.00;0.80;;;;;;;19.97;31.06;101701.63;5012895;28;20045;-66
2023/03/16 02:39:04;;;;;;;1.20;1.10;;;;;;;19.95;31.15;101701.81;4993389;28;20553;-66
2023/03/16 02:41:38;;;;;;;0.75;0.75;;;;;;;19.91;31.20;101700.44;5041804;28;20560;-66
2023/03/16 02:44:13;;;;;;;1.00;1.00;;;;;;;19.96;31.15;101692.88;4979962;28;20064;-66
2023/03/16 02:46:42;;;;;;;1.13;1.02;;;;;;;19.97;31.01;101688.41;5042608;28;20055;-66
2023/03/16 02:49:15;;;;;;;2.30;1.23;;;;;;;19.94;31.16;101700.16;4993486;28;20068;-65
2023/03/16 02:51:42;;;;;;;1.10;1.00;;;;;;;19.83;31.28;101685.38;5044158;28;20414;-65
2023/03/16 02:54:08;;;;;;;0.88;0.80;;;;;;;19.87;31.22;101684.06;4987593;28;20137;-66
2023/03/16 02:56:33;;;;;;;1.30;1.08;;;;;;;19.90;31.27;101696.13;5046730;28;20033;-66
2023/03/16 02:59:00;;;;;;;1.85;1.10;;;;;;;19.90;31.18;101693.50;5014068;28;20032;-66
2023/03/16 03:01:26;;;;;;;1.85;1.17;;;;;;;19.94;31.24;101688.75;5042875;28;20032;-65
2023/03/16 03:03:51;;;;;;;0.90;0.90;;;;;;;19.87;31.20;101683.25;4992618;28;20455;-66
2023/03/16 03:06:17;;;;;;;1.20;1.10;;;;;;;19.93;31.19;101690.56;5029462;28;20044;-66
2023/03/16 03:08:44;;;;;;;1.92;1.20;;;;;;;19.96;31.16;101689.41;5042828;28;20045;-65
2023/03/16 03:11:09;;;;;;;1.70;1.17;;;;;;;19.93;31.05;101682.63;4988660;28;20089;-65
2023/03/16 03:13:38;;;;;;;2.08;1.30;;;;;;;19.86;31.19;101673.66;5026365;28;20044;-66
2023/03/16 03:16:04;;;;;;;1.58;1.35;;;;;;;19.94;31.11;101679.00;5000404;28;20044;-66
2023/03/16 03:18:30;;;;;;;0.90;0.90;;;;;;;19.94;31.10;101673.72;5049143;28;20061;-66
2023/03/16 03:20:56;;;;;;;1.20;1.02;;;;;;;19.86;31.25;101677.13;4994849;28;20345;-66
2023/03/16 03:23:22;;;;;;;2.50;1.10;;;;;;;19.88;31.26;101674.31;5036876;28;20032;-66
2023/03/16 03:25:48;;;;;;;2.05;1.10;;;;;;;19.87;31.19;101665.56;4993492;28;20045;-65
2023/03/16 03:28:14;;;;;;;1.85;1.15;;;;;;;19.90;31.15;101659.13;5035457;28;20144;-66
2023/03/16 03:30:40;;;;;;;1.33;1.23;;;;;;;19.89;31.24;101657.47;4996878;28;20052;-66
2023/03/16 03:33:06;;;;;;;1.15;1.00;;;;;;;19.88;31.13;101650.53;5047743;28;20426;-66
2023/03/16 03:35:31;;;;;;;1.52;1.30;;;;;;;19.85;31.19;101653.50;4992717;28;20069;-66
2023/03/16 03:37:57;;;;;;;1.15;0.85;;;;;;;19.86;31.24;101644.59;5046438;28;20029;-66
2023/03/16 03:40:23;;;;;;;1.75;1.20;;;;;;;19.87;30.99;101647.06;5010590;28;20297;-65
2023/03/16 03:42:56;;;;;;;1.85;1.02;;;;;;;19.88;31.21;101647.91;5042530;28;20068;-66
2023/03/16 03:45:22;;;;;;;1.05;1.00;;;;;;;19.84;31.17;101639.47;4982919;28;20040;-65
2023/03/16 03:47:48;;;;;;;1.25;1.10;;;;;;;19.84;31.21;101641.28;5033601;28;20037;-65
2023/03/16 03:50:18;;;;;;;1.38;0.90;;;;;;;19.77;31.24;101633.19;4998951;28;20502;-66
2023/03/16 03:53:07;;;;;;;1.02;0.90;;;;;;;19.82;31.17;101630.88;5042852;28;20029;-65
2023/03/16 03:55:42;;;;;;;1.38;0.95;;;;;;;19.79;31.36;101623.28;4996263;28;20158;-64
2023/03/16 03:58:07;;;;;;;1.00;0.90;;;;;;;19.67;31.08;101621.91;5052757;28;20035;-66
2023/03/16 04:00:34;;;;;;;1.83;1.58;;;;;;;19.78;31.18;101629.53;5008153;28;20044;-65
2023/03/16 04:03:00;;;;;;;1.48;1.25;;;;;;;19.77;31.26;101630.53;5049545;28;20499;-66
2023/03/16 04:05:33;;;;;;;1.02;0.90;;;;;;;19.79;31.18;101612.69;4998171;28;20037;-65
2023/03/16 04:07:58;;;;;;;1.55;1.23;;;;;;;19.73;31.14;101615.13;5037497;28;20091;-65
2023/03/16 04:10:26;;;;;;;3.60;1.17;;;;;;;19.72;31.25;101616.94;5034194;28;20160;-65
2023/03/16 04:12:51;;;;;;;1.38;1.10;;;;;;;19.75;31.19;101614.00;5042762;28;20044;-65
2023/03/16 04:15:17;;;;;;;1.42;1.25;;;;;;;19.72;31.05;101614.31;5002317;28;20398;-65
2023/03/16 04:17:56;;;;;;;1.27;1.17;;;;;;;19.68;31.23;101607.69;5051445;28;20434;-65
2023/03/16 04:20:23;;;;;;;1.42;1.10;;;;;;;19.69;31.29;101609.34;5000042;28;20041;-66
2023/03/16 04:22:57;;;;;;;1.35;0.90;;;;;;;19.68;31.28;101614.78;5042147;28;20144;-65
2023/03/16 04:25:25;;;;;;;1.83;1.20;;;;;;;19.68;31.16;101610.34;5003144;28;20078;-66
2023/03/16 04:27:51;;;;;;;1.23;1.13;;;;;;;19.65;31.14;101617.75;5047477;28;20037;-65
2023/03/16 04:30:18;;;;;;;1.45;1.17;;;;;;;19.68;31.25;101620.91;5000368;28;20041;-65
2023/03/16 04:32:48;;;;;;;1.17;1.10;;;;;;;19.69;31.42;101612.00;5038175;28;20037;-65
2023/03/16 04:35:17;;;;;;;1.40;1.15;;;;;;;19.64;31.18;101606.38;5008974;28;20037;-65
2023/03/16 04:37:47;;;;;;;;;;;;;;;19.67;31.16;101600.75;5045243;28;20029;-65
2023/03/16 04:40:16;;;;;;;1.30;1.20;;;;;;;19.63;31.26;101602.06;5003450;28;19935;-65
2023/03/16 04:42:46;;;;;;;1.52;0.93;;;;;;;19.61;31.14;101599.59;5046183;28;20040;-67
2023/03/16 04:45:19;;;;;;;1.58;1.27;;;;;;;19.64;31.16;101589.69;5006837;28;20040;-65
2023/03/16 04:47:46;;;;;;;2.03;1.20;;;;;;;19.64;31.24;101585.22;5032314;28;20403;-66
2023/03/16 04:50:12;;;;;;;1.85;1.00;;;;;;;19.65;31.08;101584.25;5045793;28;20037;-65
2023/03/16 04:52:39;;;;;;;1.00;1.00;;;;;;;19.69;31.19;101590.03;4996055;28;20025;-65
2023/03/16 04:55:06;;;;;;;2.03;1.30;;;;;;;19.70;31.11;101578.47;5041834;28;20044;-65
2023/03/16 04:57:33;;;;;;;1.63;1.25;;;;;;;19.70;31.12;101579.28;5010804;28;20040;-65
2023/03/16 04:59:59;;;;;;;1.65;1.02;;;;;;;19.61;31.23;101565.25;5041903;28;20029;-65
2023/03/16 05:02:32;;;;;;;0.93;0.82;;;;;;;19.68;31.13;101580.44;5005819;28;20044;-65
2023/03/16 05:05:00;;;;;;;1.77;1.05;;;;;;;19.65;31.28;101567.56;5041976;28;20079;-65
2023/03/16 05:07:25;;;;;;;1.13;1.02;;;;;;;19.67;31.29;101581.44;5008399;28;20037;-65
2023/03/16 05:09:53;;;;;;;1.05;0.98;;;;;;;19.67;31.23;101579.63;5047261;28;20135;-66
2023/03/16 05:12:19;;;;;;;1.30;1.20;;;;;;;19.66;31.32;101572.69;5005354;28;20082;-65
2023/03/16 05:14:47;;;;;;;1.67;1.25;;;;;;;19.66;31.27;101572.69;5048040;28;20568;-65
2023/03/16 05:17:41;;;;;;;1.85;1.10;;;;;;;19.63;31.21;101565.06;4995063;28;20038;-64
2023/03/16 05:20:11;;;;;;;0.93;0.88;;;;;;;19.68;31.12;101570.69;5034910;28;20131;-65
2023/03/16 05:22:41;;;;;;;1.55;1.45;;;;;;;19.65;31.08;101562.28;5003690;28;20049;-65
2023/03/16 05:25:19;;;;;;;2.17;1.30;;;;;;;19.72;31.02;101563.28;5037652;28;20111;-65
2023/03/16 05:27:50;;;;;;;1.42;1.17;;;;;;;19.71;31.18;101570.38;4997873;28;20033;-65
2023/03/16 05:30:25;;;;;;;2.15;1.38;;;;;;;19.71;31.13;101569.53;5069266;28;20491;-65
2023/03/16 05:32:53;;;;;;;0.80;0.80;;;;;;;19.71;31.25;101569.53;4996528;28;20043;-65
2023/03/16 05:35:19;;;;;;;1.33;1.23;;;;;;;19.67;31.09;101571.69;5048489;28;20033;-66
2023/03/16 05:37:45;;;;;;;1.23;1.05;;;;;;;19.72;31.02;101569.38;4991932;28;20075;-65
2023/03/16 05:40:18;;;;;;;1.25;1.15;;;;;;;19.63;31.29;101559.78;5040501;28;20051;-65
2023/03/16 05:42:54;;;;;;;1.50;1.40;;;;;;;19.67;31.14;101561.13;5007256;28;20041;-65
2023/03/16 05:45:20;;;;;;;1.33;1.10;;;;;;;19.68;31.29;101564.59;5032580;28;20037;-66
2023/03/16 05:48:06;;;;;;;1.00;1.00;;;;;;;19.68;31.09;101561.94;4981937;28;20741;-65
2023/03/16 05:50:35;;;;;;;1.40;1.23;;;;;;;19.66;31.18;101561.28;5046353;28;20041;-65
2023/03/16 05:53:00;;;;;;;1.40;1.30;;;;;;;19.67;31.15;101562.94;4996920;28;20076;-65
2023/03/16 05:55:26;;;;;;;1.95;1.20;;;;;;;19.64;31.25;101566.72;5044226;28;20079;-65
2023/03/16 05:57:58;;;;;;;1.42;0.90;;;;;;;19.64;31.23;101560.63;5006256;28;20048;-65
2023/03/16 06:00:24;;;;;;;1.90;1.10;;;;;;;19.60;31.28;101571.50;5050274;28;20051;-66
2023/03/16 06:03:00;;;;;;;1.08;0.98;;;;;;;19.59;31.15;101572.50;5018017;28;20036;-66
2023/03/16 06:05:30;;;;;;;1.42;0.98;;;;;;;19.65;31.14;101567.56;5044514;28;20030;-65
2023/03/16 06:07:56;;;;;;;1.23;1.10;;;;;;;19.66;31.16;101566.56;5007609;28;20584;-65
2023/03/16 06:10:25;;;;;;;1.20;1.20;;;;;;;19.63;31.14;101561.59;5048030;28;20041;-65
2023/03/16 06:12:51;;;;;;;1.08;0.90;;;;;;;19.57;31.25;101560.44;5008557;28;20147;-65
2023/03/16 06:15:18;;;;;;;1.65;1.30;;;;;;;19.60;31.10;101565.41;5044448;28;20048;-65
2023/03/16 06:17:44;;;;;;;1.38;1.13;;;;;;;19.49;31.36;101555.09;4992363;28;20048;-66
2023/03/16 06:20:12;;;;;;;1.23;1.08;;;;;;;19.63;31.21;101569.53;5045680;28;20054;-65
2023/03/16 06:22:41;;;;;;;1.00;1.00;;;;;;;19.56;31.36;101556.94;4992382;28;20394;-64
2023/03/16 06:25:08;;;;;;;1.35;1.00;;;;;;;19.58;31.38;101562.94;5036036;28;20053;-65
2023/03/16 06:27:35;;;;;;;1.25;1.13;;;;;;;19.59;31.31;101561.09;4997405;28;21109;-65
2023/03/16 06:30:10;;;;;;;1.70;1.02;;;;;;;19.55;31.31;101562.38;5036112;28;20056;-65
2023/03/16 06:32:37;;;;;;;0.90;0.90;;;;;;;19.58;31.20;101556.81;4998711;28;20044;-64
2023/03/16 06:35:04;;;;;;;2.33;1.00;;;;;;;19.57;31.34;101563.91;5041410;28;20048;-65
2023/03/16 06:37:30;;;;;;;1.23;0.95;;;;;;;19.65;31.21;101564.91;4991738;28;20358;-65
2023/03/16 06:39:58;;;;;;;1.30;1.20;;;;;;;19.61;31.20;101556.50;5041403;28;20029;-65
2023/03/16 06:42:24;;;;;;;1.85;1.25;;;;;;;19.71;31.09;101558.97;5001751;28;20040;-65
2023/03/16 06:44:51;;;;;;;2.30;1.27;;;;;;;19.81;30.88;101557.84;5038983;28;20096;-64
2023/03/16 06:47:17;;;;;;;1.17;1.13;;;;;;;19.84;30.94;101551.41;4995708;28;20930;-65
2023/03/16 06:49:45;;;;;;;1.02;0.90;;;;;;;19.92;30.81;101554.88;5024775;28;20037;-65
2023/03/16 06:52:15;;;;;;;1.85;1.02;;;;;;;20.01;30.75;101563.69;5041995;28;20099;-65
2023/03/16 06:54:41;;;;;;;1.70;1.10;;;;;;;19.99;30.82;101559.53;4993971;28;20364;-65
2023/03/16 06:57:07;;;;;;;1.73;1.05;;;;;;;20.03;30.62;101563.50;5043500;28;20028;-65
2023/03/16 06:59:33;;;;;;;1.20;1.02;;;;;;;19.98;30.80;101558.72;4992321;28;20108;-65
2023/03/16 07:02:00;;;;;;;1.40;1.00;;;;;;;20.01;30.74;101554.91;5038502;28;20057;-64
2023/03/16 07:04:25;;;;;;;1.52;1.17;;;;;;;20.00;30.89;101554.09;5012470;28;20123;-65
2023/03/16 07:06:51;;;;;;;1.20;1.08;;;;;;;20.00;30.83;101550.63;5049204;28;20029;-65
2023/03/16 07:09:16;;;;;;;2.15;1.38;;;;;;;19.96;30.91;101560.69;5000978;28;20057;-64
2023/03/16 07:11:42;;;;;;;1.25;1.15;;;;;;;19.97;30.78;101559.72;5037200;28;20044;-65
2023/03/16 07:14:08;;;;;;;1.02;0.95;;;;;;;19.95;30.82;101552.94;5000399;28;20118;-65
2023/03/16 07:16:34;;;;;;;1.27;1.17;;;;;;;19.94;30.85;101552.13;5038115;28;20041;-65
2023/03/16 07:19:03;;;;;;;1.00;0.95;;;;;;;19.95;30.96;101550.28;4992185;28;20037;-65
2023/03/16 07:21:37;;;;;;;2.70;1.17;;;;;;;19.92;31.05;101552.25;5052814;28;20051;-65
2023/03/16 07:24:06;;;;;;;1.45;1.33;;;;;;;19.96;30.72;101552.78;5010216;28;20041;-65
2023/03/16 07:26:35;;;;;;;1.10;1.02;;;;;;;19.94;30.80;101552.13;5053544;28;20115;-65
2023/03/16 07:29:04;;;;;;;1.02;0.70;;;;;;;19.92;30.97;101559.34;5016446;28;20516;-65
2023/03/16 07:31:31;;;;;;;1.52;1.40;;;;;;;19.88;31.15;101553.56;5038781;28;20041;-65
2023/03/16 07:34:01;;;;;;;1.40;1.20;;;;;;;19.88;30.90;101556.22;4996678;28;20448;-65
2023/03/16 07:36:36;;;;;;;1.67;0.85;;;;;;;19.89;31.02;101565.78;5042746;28;20028;-65
2023/03/16 07:39:05;;;;;;;1.30;1.20;;;;;;;20.14;30.69;101568.50;5002135;28;20033;-64
2023/03/16 07:41:32;;;;;;;1.17;1.00;;;;;;;20.86;29.67;101568.66;5038748;28;20041;-65
2023/03/16 07:44:13;;;;;;;2.22;1.30;;;;;;;21.96;28.48;101555.28;5000582;28;20041;-65
2023/03/16 07:46:38;;;;;;;1.10;0.70;;;;;;;22.27;27.90;101559.75;5040336;28;20052;-65
2023/03/16 07:49:04;;;;;;;1.90;1.42;;;;;;;22.12;28.17;101554.38;4980372;28;20044;-65
2023/03/16 07:51:31;;;;;;;1.17;0.98;;;;;;;21.90;28.63;101557.81;5031841;28;20055;-65
2023/03/16 07:53:57;;;;;;;1.92;1.27;;;;;;;21.78;28.91;101554.75;5023268;28;20691;-66
2023/03/16 07:56:26;;;;;;;2.63;0.98;;;;;;;21.55;29.21;101557.38;5018453;28;20740;-65
2023/03/16 07:58:55;;;;;;;1.20;1.20;;;;;;;21.33;29.43;101553.63;5015594;28;20082;-66
2023/03/16 08:01:22;;;;;;;2.17;1.13;;;;;;;21.17;29.75;101552.84;5034158;28;20449;-66
2023/03/16 08:03:48;;;;;;;1.30;0.98;;;;;;;21.13;29.58;101561.13;5041832;28;20100;-64
2023/03/16 08:06:13;;;;;;;1.02;0.93;;;;;;;21.22;29.66;101556.66;5004228;28;20032;-66
2023/03/16 08:08:39;;;;;;;0.95;0.80;;;;;;;21.21;29.75;101576.19;5036109;28;20041;-65
2023/03/16 08:11:06;;;;;;;1.85;1.23;;;;;;;21.22;29.61;101554.00;5007434;28;20060;-66
2023/03/16 08:13:55;;;;;;;0.85;0.75;;;;;;;21.11;29.52;101541.13;5040182;28;20040;-64
2023/03/16 08:16:24;;;;;;;1.58;1.08;;;;;;;21.11;29.66;101557.81;5014828;28;20060;-65
2023/03/16 08:18:50;;;;;;;1.13;0.95;;;;;;;21.08;29.76;101554.69;5022292;28;20060;-65
2023/03/16 08:21:18;;;;;;;0.93;0.93;;;;;;;21.03;30.04;101557.03;5024031;28;20049;-64
2023/03/16 08:23:48;;;;;;;2.75;1.15;;;;;;;20.94;29.93;101553.56;5045706;28;20741;-64
2023/03/16 08:26:18;;;;;;;1.05;0.95;;;;;;;20.87;30.14;101544.66;5004206;28;20032;-65
2023/03/16 08:28:46;;;;;;;0.90;0.90;;;;;;;20.90;30.12;101554.91;5032739;28;20029;-65
2023/03/16 08:31:15;;;;;;;1.05;0.93;;;;;;;20.83;30.37;101543.34;5034457;28;20047;-65
2023/03/16 08:33:49;;;;;;;1.75;1.20;;;;;;;20.80;30.29;101557.72;5041610;28;20061;-65
2023/03/16 08:36:19;;;;;;;1.13;0.98;;;;;;;20.78;30.34;101554.44;5001725;28;20045;-65
2023/03/16 08:38:48;;;;;;;0.80;0.80;;;;;;;20.63;30.39;101536.75;5039217;28;20493;-65
2023/03/16 08:41:16;;;;;;;0.82;0.82;;;;;;;20.77;30.27;101551.94;5027595;28;20061;-64
2023/03/16 08:43:43;;;;;;;1.13;1.00;;;;;;;20.76;30.42;101555.59;5041245;28;20044;-65
2023/03/16 08:46:10;;;;;;;0.85;0.80;;;;;;;20.74;30.29;101554.94;5012598;28;20083;-65
2023/03/16 08:48:45;;;;;;;1.00;1.00;;;;;;;20.73;30.57;101553.28;5028214;28;20154;-64
2023/03/16 08:51:11;;;;;;;1.40;1.10;;;;;;;20.70;30.93;101554.47;5008652;28;20487;-64
2023/03/16 08:53:36;;;;;;;1.60;1.08;;;;;;;20.67;30.86;101551.31;5035096;28;20075;-65
2023/03/16 08:56:08;;;;;;;1.40;1.20;;;;;;;20.66;30.94;101555.78;4999589;28;20087;-65
2023/03/16 08:58:35;;;;;;;1.38;1.20;;;;;;;20.60;30.73;101547.69;5042130;28;20460;-64
2023/03/16 09:01:02;;;;;;;1.60;0.80;;;;;;;20.64;30.68;101564.88;4993725;28;20034;-64
2023/03/16 09:03:29;;;;;;;1.23;1.13;;;;;;;20.64;30.65;101572.81;5044057;28;20041;-65
2023/03/16 09:06:06;;;;;;;1.13;1.02;;;;;;;20.58;30.67;101557.59;4994691;28;20103;-65
2023/03/16 09:08:32;;;;;;;0.98;0.90;;;;;;;20.58;30.63;101566.38;5041661;28;20039;-64
2023/03/16 09:11:09;;;;;;;1.52;1.20;;;;;;;20.59;30.76;101575.13;5001387;28;21185;-64
2023/03/16 09:13:37;;;;;;;0.90;0.90;;;;;;;20.56;30.90;101564.88;5045070;28;20502;-64
2023/03/16 09:16:04;;;;;;;1.58;1.05;;;;;;;20.57;30.88;101572.66;4999619;28;20041;-64
2023/03/16 09:18:30;;;;;;;1.08;0.98;;;;;;;20.57;30.88;101569.19;5043734;28;20037;-64
2023/03/16 09:21:00;;;;;;;1.80;0.73;;;;;;;20.58;30.80;101568.19;5007520;28;20040;-64
2023/03/16 09:23:27;;;;;;;1.58;1.10;;;;;;;20.59;30.83;101569.84;5040655;28;20063;-63
2023/03/16 09:25:56;;;;;;;1.42;1.05;;;;;;;20.52;30.85;101559.94;4997120;28;20700;-64
2023/03/16 09:28:22;;;;;;;1.17;1.08;;;;;;;20.54;30.95;101561.59;5047652;28;20037;-64
2023/03/16 09:30:49;;;;;;;1.55;1.05;;;;;;;20.49;31.01;101562.91;5003090;28;20025;-64
2023/03/16 09:33:14;;;;;;;1.27;1.13;;;;;;;20.49;31.06;101556.81;5043323;28;20049;-64
2023/03/16 09:35:41;;;;;;;1.05;0.95;;;;;;;20.48;30.91;101555.16;4995976;28;20145;-64
2023/03/16 09:38:07;;;;;;;0.90;0.90;;;;;;;20.48;31.05;101550.69;5039106;28;20381;-64
2023/03/16 09:40:32;;;;;;;1.88;0.90;;;;;;;20.46;31.36;101544.69;4996780;28;20033;-65
2023/03/16 09:43:33;;;;;;;1.48;1.10;;;;;;;20.47;30.90;101541.09;5043062;28;20029;-64
2023/03/16 09:46:11;;;;;;;1.75;1.10;;;;;;;20.51;31.08;101525.72;5002874;28;20147;-64
2023/03/16 09:48:38;;;;;;;1.38;1.15;;;;;;;20.62;30.85;101529.81;5039607;28;20067;-64
2023/03/16 09:51:10;;;;;;;1.58;1.15;;;;;;;20.83;30.48;101530.13;4985145;28;20664;-64
2023/03/16 09:53:38;;;;;;;1.30;1.20;;;;;;;20.88;30.48;101526.97;5037778;28;20047;-64
2023/03/16 09:56:12;;;;;;;1.27;1.10;;;;;;;20.83;30.43;101511.59;4998557;28;20036;-64
2023/03/16 09:58:38;;;;;;;1.55;1.00;;;;;;;20.91;30.51;101516.84;5036229;28;20098;-64
2023/03/16 10:01:42;;;;;;;0.90;0.80;;;;;;;20.92;30.52;101528.25;5006444;28;20612;-64
2023/03/16 10:04:33;;;;;;;1.75;1.20;;;;;;;20.91;30.54;101543.31;5050387;28;20037;-64
2023/03/16 10:07:11;;;;;;;2.90;1.33;;;;;;;20.80;30.58;101514.56;4998076;28;20045;-64
2023/03/16 10:10:01;;;;;;;0.95;0.90;;;;;;;20.73;30.58;101511.78;5040240;28;20566;-63
2023/03/16 10:12:36;;;;;;;1.10;1.00;;;;;;;20.88;30.43;101519.84;5035421;28;20375;-64
2023/03/16 10:15:10;;;;;;;1.13;1.02;;;;;;;20.80;30.63;101520.66;5014223;28;20055;-64
2023/03/16 10:17:48;;;;;;;1.67;1.25;;;;;;;20.81;30.58;101524.97;5041376;28;20406;-64
2023/03/16 10:20:20;;;;;;;1.38;0.85;;;;;;;20.80;30.70;101528.63;4994495;28;21903;-64
2023/03/16 10:22:48;;;;;;;1.40;1.20;;;;;;;20.72;30.84;101509.28;5042291;28;20119;-64
2023/03/16 10:25:30;;;;;;;1.58;1.25;;;;;;;20.75;30.73;101520.38;4993850;28;20075;-64
2023/03/16 10:27:56;;;;;;;0.90;0.90;;;;;;;20.75;30.79;101517.72;5037969;28;20064;-64
2023/03/16 10:30:29;;;;;;;1.33;1.02;;;;;;;20.73;30.81;101514.41;4997693;28;20049;-63
2023/03/16 10:32:59;;;;;;;0.93;0.93;;;;;;;20.75;30.85;101506.31;5047853;28;20031;-64
2023/03/16 10:35:50;;;;;;;0.75;0.75;;;;;;;20.73;30.89;101503.81;4993424;28;20035;-64
2023/03/16 10:38:50;;;;;;;1.90;1.80;;;;;;;20.68;31.04;101505.34;5045195;28;20083;-65
2023/03/16 10:41:19;;;;;;;1.08;0.90;;;;;;;20.66;31.08;101488.81;4994274;28;20049;-65
2023/03/16 10:44:08;;;;;;;1.33;1.15;;;;;;;20.66;31.05;101494.94;5034597;28;20052;-64
2023/03/16 10:46:40;;;;;;;1.85;1.00;;;;;;;20.67;31.09;101485.16;4990426;28;20044;-64
2023/03/16 10:49:19;;;;;;;1.23;0.90;;;;;;;20.65;31.07;101471.28;5032659;28;20033;-65
2023/03/16 10:51:45;;;;;;;2.03;1.20;;;;;;;20.66;31.18;101470.28;4983815;28;20066;-65
2023/03/16 10:54:25;;;;;;;1.00;1.00;;;;;;;20.65;31.04;101468.63;5035787;28;20052;-64
2023/03/16 10:56:50;;;;;;;1.38;1.10;;;;;;;20.62;31.16;101455.72;5002061;28;20044;-64
2023/03/16 10:59:28;;;;;;;1.83;1.00;;;;;;;20.60;31.07;101455.88;5038710;28;20056;-64
2023/03/16 11:01:55;;;;;;;2.28;1.00;;;;;;;20.63;31.10;101455.53;5000741;28;20033;-64
2023/03/16 11:04:20;;;;;;;1.58;1.27;;;;;;;20.62;31.17;101459.19;5036551;28;20033;-64
2023/03/16 11:06:54;;;;;;;1.15;1.02;;;;;;;20.67;31.12;101456.06;4943711;28;20051;-64
2023/03/16 11:09:26;;;;;;;1.60;1.05;;;;;;;20.73;31.11;101458.00;5034586;28;20147;-64
2023/03/16 11:11:52;;;;;;;0.88;0.88;;;;;;;20.73;30.95;101455.38;4997769;28;20032;-64
2023/03/16 11:14:26;;;;;;;1.13;0.95;;;;;;;20.74;30.97;101452.53;5034997;28;20037;-64
2023/03/16 11:17:33;;;;;;;1.55;1.35;;;;;;;20.74;30.90;101457.84;4996581;28;20029;-64
2023/03/16 11:20:13;;;;;;;1.55;1.05;;;;;;;20.44;31.23;101405.66;5017360;28;20041;-64
2023/03/16 11:22:41;;;;;;;1.05;0.77;;;;;;;20.69;31.25;101438.19;4992478;28;20059;-64
2023/03/16 11:25:28;;;;;;;1.60;1.15;;;;;;;20.64;31.24;101430.72;5039181;28;20044;-64
2023/03/16 11:28:10;;;;;;;1.50;1.10;;;;;;;20.68;31.11;101434.72;4996361;28;20036;-64
2023/03/16 11:30:42;;;;;;;1.65;1.20;;;;;;;20.69;30.95;101435.53;5038695;28;20041;-64
2023/03/16 11:33:10;;;;;;;0.88;0.80;;;;;;;20.66;31.21;101425.28;4995156;28;21421;-64
2023/03/16 11:35:59;;;;;;;1.60;1.50;;;;;;;20.63;31.03;101421.13;5037470;28;20033;-64
2023/03/16 11:38:53;;;;;;;1.10;1.02;;;;;;;20.65;31.18;101418.34;5017514;28;20044;-65